sensor_id;sensor_type;location;lat;lon;timestamp;P1;durP1;ratioP1;P2;durP2;ratioP2
13406;SDS011;6774;48.208;10.766;2023-07-16T00:01:44;5.47;;;3.00;;
13406;SDS011;6774;48.208;10.766;2023-07-16T00:04:12;3.67;;;3.47;;
13406;SDS011;6774;48.208;10.766;2023-07-16T00:06:40;3.78;;;3.58;;
13406;SDS011;6774;48.208;10.766;2023-07-16T00:09:07;3.43;;;2.57;;
13406;SDS011;6774;48.208;10.766;2023-07-16T00:11:35;2.80;;;2.60;;
13406;SDS011;6774;48.208;10.766;2023-07-16T00:14:03;4.93;;;4.53;;
13406;SDS011;6774;48.208;10.766;2023-07-16T00:16:31;3.50;;;3.30;;
13406;SDS011;6774;48.208;10.766;2023-07-16T00:19:00;4.03;;;3.40;;
13406;SDS011;6774;48.208;10.766;2023-07-16T00:21:28;7.17;;;3.07;;
13406;SDS011;6774;48.208;10.766;2023-07-16T00:23:56;3.47;;;2.67;;
13406;SDS011;6774;48.208;10.766;2023-07-16T00:26:24;3.30;;;3.17;;
13406;SDS011;6774;48.208;10.766;2023-07-16T00:28:51;5.10;;;3.23;;
13406;SDS011;6774;48.208;10.766;2023-07-16T00:31:19;3.00;;;2.80;;
13406;SDS011;6774;48.208;10.766;2023-07-16T00:33:47;3.60;;;3.40;;
13406;SDS011;6774;48.208;10.766;2023-07-16T00:36:16;2.70;;;2.50;;
13406;SDS011;6774;48.208;10.766;2023-07-16T00:38:44;2.87;;;2.53;;
13406;SDS011;6774;48.208;10.766;2023-07-16T00:41:12;4.33;;;3.93;;
13406;SDS011;6774;48.208;10.766;2023-07-16T00:43:40;4.83;;;4.33;;
13406;SDS011;6774;48.208;10.766;2023-07-16T00:46:08;3.93;;;3.67;;
13406;SDS011;6774;48.208;10.766;2023-07-16T00:48:37;3.93;;;3.73;;
13406;SDS011;6774;48.208;10.766;2023-07-16T00:51:05;3.50;;;3.20;;
13406;SDS011;6774;48.208;10.766;2023-07-16T00:53:34;3.80;;;3.50;;
13406;SDS011;6774;48.208;10.766;2023-07-16T00:56:02;3.77;;;3.43;;
13406;SDS011;6774;48.208;10.766;2023-07-16T00:58:30;3.23;;;3.03;;
13406;SDS011;6774;48.208;10.766;2023-07-16T01:00:58;2.87;;;2.57;;
13406;SDS011;6774;48.208;10.766;2023-07-16T01:03:26;3.90;;;3.63;;
13406;SDS011;6774;48.208;10.766;2023-07-16T01:05:55;2.93;;;2.83;;
13406;SDS011;6774;48.208;10.766;2023-07-16T01:08:30;3.67;;;3.33;;
13406;SDS011;6774;48.208;10.766;2023-07-16T01:11:02;4.23;;;3.87;;
13406;SDS011;6774;48.208;10.766;2023-07-16T01:13:33;4.70;;;3.87;;
13406;SDS011;6774;48.208;10.766;2023-07-16T01:16:01;5.97;;;5.40;;
13406;SDS011;6774;48.208;10.766;2023-07-16T01:18:30;5.00;;;4.60;;
13406;SDS011;6774;48.208;10.766;2023-07-16T01:20:57;4.60;;;4.17;;
13406;SDS011;6774;48.208;10.766;2023-07-16T01:23:39;15.40;;;5.63;;
13406;SDS011;6774;48.208;10.766;2023-07-16T01:26:39;6.00;;;5.07;;
13406;SDS011;6774;48.208;10.766;2023-07-16T01:29:29;3.37;;;3.17;;
13406;SDS011;6774;48.208;10.766;2023-07-16T01:32:03;5.13;;;4.80;;
13406;SDS011;6774;48.208;10.766;2023-07-16T01:34:35;27.40;;;3.93;;
13406;SDS011;6774;48.208;10.766;2023-07-16T01:37:04;2.83;;;2.67;;
13406;SDS011;6774;48.208;10.766;2023-07-16T01:39:32;3.93;;;3.73;;
13406;SDS011;6774;48.208;10.766;2023-07-16T01:42:00;4.10;;;3.90;;
13406;SDS011;6774;48.208;10.766;2023-07-16T01:44:30;3.60;;;3.07;;
13406;SDS011;6774;48.208;10.766;2023-07-16T01:47:03;6.63;;;4.03;;
13406;SDS011;6774;48.208;10.766;2023-07-16T01:49:33;5.07;;;3.23;;
13406;SDS011;6774;48.208;10.766;2023-07-16T01:52:02;3.70;;;3.40;;
13406;SDS011;6774;48.208;10.766;2023-07-16T01:54:32;2.97;;;2.87;;
13406;SDS011;6774;48.208;10.766;2023-07-16T01:57:00;4.33;;;3.30;;
13406;SDS011;6774;48.208;10.766;2023-07-16T01:59:29;3.37;;;3.17;;
13406;SDS011;6774;48.208;10.766;2023-07-16T02:01:57;3.10;;;2.90;;
13406;SDS011;6774;48.208;10.766;2023-07-16T02:04:25;5.10;;;3.83;;
13406;SDS011;6774;48.208;10.766;2023-07-16T02:06:52;2.93;;;2.73;;
13406;SDS011;6774;48.208;10.766;2023-07-16T02:09:20;3.53;;;3.33;;
13406;SDS011;6774;48.208;10.766;2023-07-16T02:11:48;3.80;;;3.10;;
13406;SDS011;6774;48.208;10.766;2023-07-16T02:14:16;5.10;;;4.40;;
13406;SDS011;6774;48.208;10.766;2023-07-16T02:16:45;6.80;;;4.60;;
13406;SDS011;6774;48.208;10.766;2023-07-16T02:19:13;5.47;;;4.33;;
13406;SDS011;6774;48.208;10.766;2023-07-16T02:21:41;11.50;;;5.60;;
13406;SDS011;6774;48.208;10.766;2023-07-16T02:24:10;6.90;;;5.33;;
13406;SDS011;6774;48.208;10.766;2023-07-16T02:26:38;5.67;;;5.23;;
13406;SDS011;6774;48.208;10.766;2023-07-16T02:29:10;5.50;;;4.93;;
13406;SDS011;6774;48.208;10.766;2023-07-16T02:31:37;4.70;;;3.60;;
13406;SDS011;6774;48.208;10.766;2023-07-16T02:34:08;4.03;;;3.73;;
13406;SDS011;6774;48.208;10.766;2023-07-16T02:36:36;4.53;;;4.17;;
13406;SDS011;6774;48.208;10.766;2023-07-16T02:39:04;5.60;;;3.87;;
13406;SDS011;6774;48.208;10.766;2023-07-16T02:41:32;6.10;;;5.10;;
13406;SDS011;6774;48.208;10.766;2023-07-16T02:44:00;4.30;;;3.97;;
13406;SDS011;6774;48.208;10.766;2023-07-16T02:46:29;3.80;;;3.60;;
13406;SDS011;6774;48.208;10.766;2023-07-16T02:48:57;4.67;;;4.47;;
13406;SDS011;6774;48.208;10.766;2023-07-16T02:51:26;5.00;;;3.60;;
13406;SDS011;6774;48.208;10.766;2023-07-16T02:53:53;4.60;;;3.50;;
13406;SDS011;6774;48.208;10.766;2023-07-16T02:56:21;2.77;;;2.67;;
13406;SDS011;6774;48.208;10.766;2023-07-16T02:58:49;2.27;;;2.03;;
13406;SDS011;6774;48.208;10.766;2023-07-16T03:01:17;1.90;;;1.80;;
13406;SDS011;6774;48.208;10.766;2023-07-16T03:03:45;2.00;;;1.90;;
13406;SDS011;6774;48.208;10.766;2023-07-16T03:06:13;2.27;;;2.13;;
13406;SDS011;6774;48.208;10.766;2023-07-16T03:08:45;5.13;;;2.13;;
13406;SDS011;6774;48.208;10.766;2023-07-16T03:11:16;1.80;;;1.70;;
13406;SDS011;6774;48.208;10.766;2023-07-16T03:13:44;1.57;;;1.53;;
13406;SDS011;6774;48.208;10.766;2023-07-16T03:16:12;2.30;;;1.10;;
13406;SDS011;6774;48.208;10.766;2023-07-16T03:18:40;1.73;;;1.33;;
13406;SDS011;6774;48.208;10.766;2023-07-16T03:21:08;4.10;;;2.07;;
13406;SDS011;6774;48.208;10.766;2023-07-16T03:23:36;2.23;;;2.03;;
13406;SDS011;6774;48.208;10.766;2023-07-16T03:26:06;3.20;;;2.10;;
13406;SDS011;6774;48.208;10.766;2023-07-16T03:28:34;1.13;;;1.10;;
13406;SDS011;6774;48.208;10.766;2023-07-16T03:31:04;2.83;;;1.37;;
13406;SDS011;6774;48.208;10.766;2023-07-16T03:33:35;1.67;;;1.57;;
13406;SDS011;6774;48.208;10.766;2023-07-16T03:36:03;1.20;;;1.10;;
13406;SDS011;6774;48.208;10.766;2023-07-16T03:38:31;5.47;;;2.00;;
13406;SDS011;6774;48.208;10.766;2023-07-16T03:40:59;1.20;;;1.10;;
13406;SDS011;6774;48.208;10.766;2023-07-16T03:43:28;1.17;;;1.07;;
13406;SDS011;6774;48.208;10.766;2023-07-16T03:46:04;1.60;;;1.50;;
13406;SDS011;6774;48.208;10.766;2023-07-16T03:48:35;1.60;;;1.50;;
13406;SDS011;6774;48.208;10.766;2023-07-16T03:51:03;2.13;;;2.03;;
13406;SDS011;6774;48.208;10.766;2023-07-16T03:53:31;1.30;;;1.30;;
13406;SDS011;6774;48.208;10.766;2023-07-16T03:55:58;2.10;;;2.00;;
13406;SDS011;6774;48.208;10.766;2023-07-16T03:58:27;3.43;;;3.17;;
13406;SDS011;6774;48.208;10.766;2023-07-16T04:00:55;2.77;;;2.50;;
13406;SDS011;6774;48.208;10.766;2023-07-16T04:03:24;2.97;;;2.77;;
13406;SDS011;6774;48.208;10.766;2023-07-16T04:05:52;2.07;;;1.90;;
13406;SDS011;6774;48.208;10.766;2023-07-16T04:08:28;2.37;;;2.17;;
13406;SDS011;6774;48.208;10.766;2023-07-16T04:10:56;1.80;;;1.57;;
13406;SDS011;6774;48.208;10.766;2023-07-16T04:13:23;3.53;;;1.97;;
13406;SDS011;6774;48.208;10.766;2023-07-16T04:15:52;2.07;;;1.80;;
13406;SDS011;6774;48.208;10.766;2023-07-16T04:18:22;2.03;;;1.93;;
13406;SDS011;6774;48.208;10.766;2023-07-16T04:20:50;2.23;;;2.03;;
13406;SDS011;6774;48.208;10.766;2023-07-16T04:23:18;1.83;;;1.73;;
13406;SDS011;6774;48.208;10.766;2023-07-16T04:25:46;1.70;;;1.60;;
13406;SDS011;6774;48.208;10.766;2023-07-16T04:28:14;4.20;;;3.33;;
13406;SDS011;6774;48.208;10.766;2023-07-16T04:30:42;7.37;;;2.13;;
13406;SDS011;6774;48.208;10.766;2023-07-16T04:33:11;1.80;;;1.50;;
13406;SDS011;6774;48.208;10.766;2023-07-16T04:35:39;1.90;;;1.80;;
13406;SDS011;6774;48.208;10.766;2023-07-16T04:38:07;2.13;;;2.03;;
13406;SDS011;6774;48.208;10.766;2023-07-16T04:40:35;1.67;;;1.57;;
13406;SDS011;6774;48.208;10.766;2023-07-16T04:43:03;3.37;;;3.07;;
13406;SDS011;6774;48.208;10.766;2023-07-16T04:45:30;1.60;;;1.50;;
13406;SDS011;6774;48.208;10.766;2023-07-16T04:47:58;1.30;;;1.20;;
13406;SDS011;6774;48.208;10.766;2023-07-16T04:50:27;2.60;;;1.27;;
13406;SDS011;6774;48.208;10.766;2023-07-16T04:52:55;1.37;;;0.97;;
13406;SDS011;6774;48.208;10.766;2023-07-16T04:55:23;1.33;;;1.00;;
13406;SDS011;6774;48.208;10.766;2023-07-16T04:57:51;1.77;;;1.67;;
13406;SDS011;6774;48.208;10.766;2023-07-16T05:00:20;1.53;;;1.43;;
13406;SDS011;6774;48.208;10.766;2023-07-16T05:02:48;1.00;;;0.90;;
13406;SDS011;6774;48.208;10.766;2023-07-16T05:05:15;1.73;;;1.27;;
13406;SDS011;6774;48.208;10.766;2023-07-16T05:07:44;4.50;;;2.07;;
13406;SDS011;6774;48.208;10.766;2023-07-16T05:10:12;3.03;;;2.07;;
13406;SDS011;6774;48.208;10.766;2023-07-16T05:12:40;0.60;;;0.60;;
13406;SDS011;6774;48.208;10.766;2023-07-16T05:15:08;1.00;;;0.90;;
13406;SDS011;6774;48.208;10.766;2023-07-16T05:17:36;2.97;;;1.90;;
13406;SDS011;6774;48.208;10.766;2023-07-16T05:20:05;6.90;;;1.47;;
13406;SDS011;6774;48.208;10.766;2023-07-16T05:22:33;0.80;;;0.80;;
13406;SDS011;6774;48.208;10.766;2023-07-16T05:25:02;1.07;;;1.00;;
13406;SDS011;6774;48.208;10.766;2023-07-16T05:27:31;1.27;;;1.17;;
13406;SDS011;6774;48.208;10.766;2023-07-16T05:29:58;1.23;;;1.20;;
13406;SDS011;6774;48.208;10.766;2023-07-16T05:32:26;0.97;;;0.97;;
13406;SDS011;6774;48.208;10.766;2023-07-16T05:34:54;0.70;;;0.70;;
13406;SDS011;6774;48.208;10.766;2023-07-16T05:37:22;1.53;;;1.43;;
13406;SDS011;6774;48.208;10.766;2023-07-16T05:39:49;1.40;;;1.03;;
13406;SDS011;6774;48.208;10.766;2023-07-16T05:42:18;1.50;;;0.97;;
13406;SDS011;6774;48.208;10.766;2023-07-16T05:44:46;0.97;;;0.97;;
13406;SDS011;6774;48.208;10.766;2023-07-16T05:47:14;1.63;;;1.50;;
13406;SDS011;6774;48.208;10.766;2023-07-16T05:49:42;1.23;;;0.90;;
13406;SDS011;6774;48.208;10.766;2023-07-16T05:52:11;1.77;;;1.67;;
13406;SDS011;6774;48.208;10.766;2023-07-16T05:54:38;3.23;;;1.27;;
13406;SDS011;6774;48.208;10.766;2023-07-16T05:57:06;1.20;;;1.10;;
13406;SDS011;6774;48.208;10.766;2023-07-16T05:59:35;0.93;;;0.93;;
13406;SDS011;6774;48.208;10.766;2023-07-16T06:02:03;0.93;;;0.90;;
13406;SDS011;6774;48.208;10.766;2023-07-16T06:04:32;0.63;;;0.63;;
13406;SDS011;6774;48.208;10.766;2023-07-16T06:06:59;2.93;;;1.40;;
13406;SDS011;6774;48.208;10.766;2023-07-16T06:09:27;1.23;;;0.63;;
13406;SDS011;6774;48.208;10.766;2023-07-16T06:11:55;1.17;;;1.17;;
13406;SDS011;6774;48.208;10.766;2023-07-16T06:14:23;0.87;;;0.87;;
13406;SDS011;6774;48.208;10.766;2023-07-16T06:16:52;0.83;;;0.83;;
13406;SDS011;6774;48.208;10.766;2023-07-16T06:19:19;1.37;;;1.27;;
13406;SDS011;6774;48.208;10.766;2023-07-16T06:21:47;1.57;;;0.97;;
13406;SDS011;6774;48.208;10.766;2023-07-16T06:24:15;3.00;;;0.67;;
13406;SDS011;6774;48.208;10.766;2023-07-16T06:26:43;0.90;;;0.90;;
13406;SDS011;6774;48.208;10.766;2023-07-16T06:29:10;1.10;;;0.60;;
13406;SDS011;6774;48.208;10.766;2023-07-16T06:31:38;4.83;;;1.83;;
13406;SDS011;6774;48.208;10.766;2023-07-16T06:34:07;0.60;;;0.60;;
13406;SDS011;6774;48.208;10.766;2023-07-16T06:36:35;1.40;;;0.90;;
13406;SDS011;6774;48.208;10.766;2023-07-16T06:39:03;0.90;;;0.87;;
13406;SDS011;6774;48.208;10.766;2023-07-16T06:41:31;1.17;;;1.17;;
13406;SDS011;6774;48.208;10.766;2023-07-16T06:43:58;0.80;;;0.77;;
13406;SDS011;6774;48.208;10.766;2023-07-16T06:46:26;2.17;;;0.70;;
13406;SDS011;6774;48.208;10.766;2023-07-16T06:48:54;0.83;;;0.60;;
13406;SDS011;6774;48.208;10.766;2023-07-16T06:51:23;1.90;;;1.00;;
13406;SDS011;6774;48.208;10.766;2023-07-16T06:53:51;1.20;;;1.13;;
13406;SDS011;6774;48.208;10.766;2023-07-16T06:56:18;0.90;;;0.50;;
13406;SDS011;6774;48.208;10.766;2023-07-16T06:58:46;2.90;;;1.47;;
13406;SDS011;6774;48.208;10.766;2023-07-16T07:01:14;4.97;;;0.70;;
13406;SDS011;6774;48.208;10.766;2023-07-16T07:03:42;1.23;;;0.70;;
13406;SDS011;6774;48.208;10.766;2023-07-16T07:06:09;1.47;;;1.23;;
13406;SDS011;6774;48.208;10.766;2023-07-16T07:08:39;2.87;;;0.73;;
13406;SDS011;6774;48.208;10.766;2023-07-16T07:11:07;0.63;;;0.63;;
13406;SDS011;6774;48.208;10.766;2023-07-16T07:13:34;0.63;;;0.60;;
13406;SDS011;6774;48.208;10.766;2023-07-16T07:16:02;0.63;;;0.63;;
13406;SDS011;6774;48.208;10.766;2023-07-16T07:18:30;0.73;;;0.73;;
13406;SDS011;6774;48.208;10.766;2023-07-16T07:20:58;2.00;;;1.37;;
13406;SDS011;6774;48.208;10.766;2023-07-16T07:23:26;0.80;;;0.80;;
13406;SDS011;6774;48.208;10.766;2023-07-16T07:25:55;1.13;;;0.93;;
13406;SDS011;6774;48.208;10.766;2023-07-16T07:28:23;0.83;;;0.83;;
13406;SDS011;6774;48.208;10.766;2023-07-16T07:30:51;1.03;;;1.03;;
13406;SDS011;6774;48.208;10.766;2023-07-16T07:33:18;0.83;;;0.83;;
13406;SDS011;6774;48.208;10.766;2023-07-16T07:35:46;1.33;;;1.27;;
13406;SDS011;6774;48.208;10.766;2023-07-16T07:38:14;8.70;;;2.10;;
13406;SDS011;6774;48.208;10.766;2023-07-16T07:40:42;0.63;;;0.50;;
13406;SDS011;6774;48.208;10.766;2023-07-16T07:43:12;0.70;;;0.70;;
13406;SDS011;6774;48.208;10.766;2023-07-16T07:45:40;0.87;;;0.50;;
13406;SDS011;6774;48.208;10.766;2023-07-16T07:48:08;1.80;;;0.90;;
13406;SDS011;6774;48.208;10.766;2023-07-16T07:50:35;0.90;;;0.90;;
13406;SDS011;6774;48.208;10.766;2023-07-16T07:53:03;1.07;;;1.07;;
13406;SDS011;6774;48.208;10.766;2023-07-16T07:55:33;1.33;;;1.10;;
13406;SDS011;6774;48.208;10.766;2023-07-16T07:58:01;0.67;;;0.67;;
13406;SDS011;6774;48.208;10.766;2023-07-16T08:00:30;0.80;;;0.67;;
13406;SDS011;6774;48.208;10.766;2023-07-16T08:02:57;1.10;;;1.10;;
13406;SDS011;6774;48.208;10.766;2023-07-16T08:05:25;0.60;;;0.53;;
13406;SDS011;6774;48.208;10.766;2023-07-16T08:07:53;0.87;;;0.87;;
13406;SDS011;6774;48.208;10.766;2023-07-16T08:10:21;0.63;;;0.60;;
13406;SDS011;6774;48.208;10.766;2023-07-16T08:12:49;4.30;;;1.57;;
13406;SDS011;6774;48.208;10.766;2023-07-16T08:15:17;2.20;;;0.60;;
13406;SDS011;6774;48.208;10.766;2023-07-16T08:17:47;0.90;;;0.90;;
13406;SDS011;6774;48.208;10.766;2023-07-16T08:20:15;0.90;;;0.90;;
13406;SDS011;6774;48.208;10.766;2023-07-16T08:22:43;0.80;;;0.77;;
13406;SDS011;6774;48.208;10.766;2023-07-16T08:25:11;0.80;;;0.80;;
13406;SDS011;6774;48.208;10.766;2023-07-16T08:27:38;2.10;;;0.70;;
13406;SDS011;6774;48.208;10.766;2023-07-16T08:30:07;0.70;;;0.70;;
13406;SDS011;6774;48.208;10.766;2023-07-16T08:32:35;0.70;;;0.70;;
13406;SDS011;6774;48.208;10.766;2023-07-16T08:35:05;1.03;;;1.03;;
13406;SDS011;6774;48.208;10.766;2023-07-16T08:37:33;2.67;;;1.07;;
13406;SDS011;6774;48.208;10.766;2023-07-16T08:40:01;1.30;;;1.20;;
13406;SDS011;6774;48.208;10.766;2023-07-16T08:42:29;1.43;;;1.33;;
13406;SDS011;6774;48.208;10.766;2023-07-16T08:44:57;0.60;;;0.60;;
13406;SDS011;6774;48.208;10.766;2023-07-16T08:47:25;1.10;;;1.00;;
13406;SDS011;6774;48.208;10.766;2023-07-16T08:49:54;1.10;;;1.00;;
13406;SDS011;6774;48.208;10.766;2023-07-16T08:52:24;0.70;;;0.70;;
13406;SDS011;6774;48.208;10.766;2023-07-16T08:54:54;0.60;;;0.60;;
13406;SDS011;6774;48.208;10.766;2023-07-16T08:57:22;2.23;;;1.20;;
13406;SDS011;6774;48.208;10.766;2023-07-16T08:59:50;0.67;;;0.67;;
13406;SDS011;6774;48.208;10.766;2023-07-16T09:02:19;1.00;;;1.00;;
13406;SDS011;6774;48.208;10.766;2023-07-16T09:04:48;1.73;;;1.07;;
13406;SDS011;6774;48.208;10.766;2023-07-16T09:07:17;0.93;;;0.93;;
13406;SDS011;6774;48.208;10.766;2023-07-16T09:09:55;0.97;;;0.87;;
13406;SDS011;6774;48.208;10.766;2023-07-16T09:12:26;1.90;;;1.07;;
13406;SDS011;6774;48.208;10.766;2023-07-16T09:14:56;3.17;;;0.90;;
13406;SDS011;6774;48.208;10.766;2023-07-16T09:17:24;0.70;;;0.70;;
13406;SDS011;6774;48.208;10.766;2023-07-16T09:19:52;0.90;;;0.90;;
13406;SDS011;6774;48.208;10.766;2023-07-16T09:22:20;0.80;;;0.80;;
13406;SDS011;6774;48.208;10.766;2023-07-16T09:24:48;0.80;;;0.80;;
13406;SDS011;6774;48.208;10.766;2023-07-16T09:27:17;0.87;;;0.87;;
13406;SDS011;6774;48.208;10.766;2023-07-16T09:29:45;2.33;;;0.80;;
13406;SDS011;6774;48.208;10.766;2023-07-16T09:32:17;0.73;;;0.50;;
13406;SDS011;6774;48.208;10.766;2023-07-16T09:34:44;1.20;;;0.80;;
13406;SDS011;6774;48.208;10.766;2023-07-16T09:37:12;0.65;;;0.60;;
13406;SDS011;6774;48.208;10.766;2023-07-16T09:39:40;1.63;;;1.30;;
13406;SDS011;6774;48.208;10.766;2023-07-16T09:42:09;2.40;;;1.30;;
13406;SDS011;6774;48.208;10.766;2023-07-16T09:44:39;0.70;;;0.70;;
13406;SDS011;6774;48.208;10.766;2023-07-16T09:47:08;0.60;;;0.50;;
13406;SDS011;6774;48.208;10.766;2023-07-16T09:49:36;2.40;;;0.90;;
13406;SDS011;6774;48.208;10.766;2023-07-16T09:52:04;1.08;;;1.00;;
13406;SDS011;6774;48.208;10.766;2023-07-16T09:54:33;0.60;;;0.60;;
13406;SDS011;6774;48.208;10.766;2023-07-16T09:57:04;1.38;;;1.27;;
13406;SDS011;6774;48.208;10.766;2023-07-16T09:59:35;0.80;;;0.80;;
13406;SDS011;6774;48.208;10.766;2023-07-16T10:02:05;2.03;;;1.92;;
13406;SDS011;6774;48.208;10.766;2023-07-16T10:04:38;3.35;;;0.90;;
13406;SDS011;6774;48.208;10.766;2023-07-16T10:07:06;1.52;;;0.88;;
13406;SDS011;6774;48.208;10.766;2023-07-16T10:09:35;1.15;;;0.68;;
13406;SDS011;6774;48.208;10.766;2023-07-16T10:12:14;1.58;;;0.73;;
13406;SDS011;6774;48.208;10.766;2023-07-16T10:14:44;1.42;;;1.35;;
13406;SDS011;6774;48.208;10.766;2023-07-16T10:17:15;0.82;;;0.82;;
13406;SDS011;6774;48.208;10.766;2023-07-16T10:19:47;1.00;;;0.88;;
13406;SDS011;6774;48.208;10.766;2023-07-16T10:22:30;0.60;;;0.60;;
13406;SDS011;6774;48.208;10.766;2023-07-16T10:24:59;0.93;;;0.93;;
13406;SDS011;6774;48.208;10.766;2023-07-16T10:27:29;1.48;;;1.48;;
13406;SDS011;6774;48.208;10.766;2023-07-16T10:29:58;1.02;;;0.98;;
13406;SDS011;6774;48.208;10.766;2023-07-16T10:32:31;1.10;;;1.00;;
13406;SDS011;6774;48.208;10.766;2023-07-16T10:35:00;2.75;;;0.60;;
13406;SDS011;6774;48.208;10.766;2023-07-16T10:37:29;1.17;;;0.85;;
13406;SDS011;6774;48.208;10.766;2023-07-16T10:39:57;1.42;;;1.33;;
13406;SDS011;6774;48.208;10.766;2023-07-16T10:42:26;1.05;;;1.05;;
13406;SDS011;6774;48.208;10.766;2023-07-16T10:44:56;0.82;;;0.82;;
13406;SDS011;6774;48.208;10.766;2023-07-16T10:47:28;1.23;;;1.23;;
13406;SDS011;6774;48.208;10.766;2023-07-16T10:49:59;0.75;;;0.75;;
13406;SDS011;6774;48.208;10.766;2023-07-16T10:52:27;0.82;;;0.80;;
13406;SDS011;6774;48.208;10.766;2023-07-16T10:54:55;0.90;;;0.90;;
13406;SDS011;6774;48.208;10.766;2023-07-16T10:57:24;1.05;;;1.05;;
13406;SDS011;6774;48.208;10.766;2023-07-16T10:59:52;0.93;;;0.85;;
13406;SDS011;6774;48.208;10.766;2023-07-16T11:02:21;0.60;;;0.60;;
13406;SDS011;6774;48.208;10.766;2023-07-16T11:04:52;1.05;;;1.00;;
13406;SDS011;6774;48.208;10.766;2023-07-16T11:07:20;1.23;;;1.13;;
13406;SDS011;6774;48.208;10.766;2023-07-16T11:09:49;1.15;;;1.05;;
13406;SDS011;6774;48.208;10.766;2023-07-16T11:12:18;0.80;;;0.60;;
13406;SDS011;6774;48.208;10.766;2023-07-16T11:14:48;0.80;;;0.80;;
13406;SDS011;6774;48.208;10.766;2023-07-16T11:17:17;0.77;;;0.70;;
13406;SDS011;6774;48.208;10.766;2023-07-16T11:19:45;3.30;;;0.60;;
13406;SDS011;6774;48.208;10.766;2023-07-16T11:22:15;1.02;;;1.02;;
13406;SDS011;6774;48.208;10.766;2023-07-16T11:24:44;0.73;;;0.70;;
13406;SDS011;6774;48.208;10.766;2023-07-16T11:27:14;0.73;;;0.60;;
13406;SDS011;6774;48.208;10.766;2023-07-16T11:29:46;0.68;;;0.68;;
13406;SDS011;6774;48.208;10.766;2023-07-16T11:32:25;15.65;;;1.88;;
13406;SDS011;6774;48.208;10.766;2023-07-16T11:34:54;1.38;;;0.50;;
13406;SDS011;6774;48.208;10.766;2023-07-16T11:37:25;0.95;;;0.93;;
13406;SDS011;6774;48.208;10.766;2023-07-16T11:39:57;1.00;;;0.93;;
13406;SDS011;6774;48.208;10.766;2023-07-16T11:42:27;1.10;;;1.00;;
13406;SDS011;6774;48.208;10.766;2023-07-16T11:44:56;0.80;;;0.80;;
13406;SDS011;6774;48.208;10.766;2023-07-16T11:47:24;0.90;;;0.90;;
13406;SDS011;6774;48.208;10.766;2023-07-16T11:49:52;0.70;;;0.63;;
13406;SDS011;6774;48.208;10.766;2023-07-16T11:52:20;0.82;;;0.82;;
13406;SDS011;6774;48.208;10.766;2023-07-16T11:54:50;0.88;;;0.70;;
13406;SDS011;6774;48.208;10.766;2023-07-16T11:57:18;1.67;;;1.02;;
13406;SDS011;6774;48.208;10.766;2023-07-16T11:59:46;0.82;;;0.82;;
13406;SDS011;6774;48.208;10.766;2023-07-16T12:02:14;1.05;;;1.05;;
13406;SDS011;6774;48.208;10.766;2023-07-16T12:04:42;1.23;;;0.77;;
13406;SDS011;6774;48.208;10.766;2023-07-16T12:07:10;0.70;;;0.70;;
13406;SDS011;6774;48.208;10.766;2023-07-16T12:09:38;0.70;;;0.65;;
13406;SDS011;6774;48.208;10.766;2023-07-16T12:12:07;0.50;;;0.43;;
13406;SDS011;6774;48.208;10.766;2023-07-16T12:14:36;1.75;;;1.27;;
13406;SDS011;6774;48.208;10.766;2023-07-16T12:17:04;0.73;;;0.73;;
13406;SDS011;6774;48.208;10.766;2023-07-16T12:19:32;0.50;;;0.50;;
13406;SDS011;6774;48.208;10.766;2023-07-16T12:22:00;0.60;;;0.60;;
13406;SDS011;6774;48.208;10.766;2023-07-16T12:24:28;1.10;;;1.10;;
13406;SDS011;6774;48.208;10.766;2023-07-16T12:26:55;1.40;;;1.30;;
13406;SDS011;6774;48.208;10.766;2023-07-16T12:29:24;0.63;;;0.63;;
13406;SDS011;6774;48.208;10.766;2023-07-16T12:31:52;2.92;;;0.73;;
13406;SDS011;6774;48.208;10.766;2023-07-16T12:34:20;0.82;;;0.82;;
13406;SDS011;6774;48.208;10.766;2023-07-16T12:36:48;1.33;;;0.85;;
13406;SDS011;6774;48.208;10.766;2023-07-16T12:39:15;2.20;;;0.93;;
13406;SDS011;6774;48.208;10.766;2023-07-16T12:41:43;0.82;;;0.82;;
13406;SDS011;6774;48.208;10.766;2023-07-16T12:44:11;0.70;;;0.70;;
13406;SDS011;6774;48.208;10.766;2023-07-16T12:46:40;0.80;;;0.77;;
13406;SDS011;6774;48.208;10.766;2023-07-16T12:49:08;1.30;;;1.20;;
13406;SDS011;6774;48.208;10.766;2023-07-16T12:51:36;0.95;;;0.95;;
13406;SDS011;6774;48.208;10.766;2023-07-16T12:54:03;1.55;;;1.23;;
13406;SDS011;6774;48.208;10.766;2023-07-16T12:56:32;5.85;;;0.93;;
13406;SDS011;6774;48.208;10.766;2023-07-16T12:59:00;0.52;;;0.52;;
13406;SDS011;6774;48.208;10.766;2023-07-16T13:01:28;1.58;;;1.23;;
13406;SDS011;6774;48.208;10.766;2023-07-16T13:03:58;0.93;;;0.93;;
13406;SDS011;6774;48.208;10.766;2023-07-16T13:06:26;1.08;;;0.80;;
13406;SDS011;6774;48.208;10.766;2023-07-16T13:08:54;1.27;;;1.20;;
13406;SDS011;6774;48.208;10.766;2023-07-16T13:11:21;0.85;;;0.85;;
13406;SDS011;6774;48.208;10.766;2023-07-16T13:13:49;0.93;;;0.93;;
13406;SDS011;6774;48.208;10.766;2023-07-16T13:16:17;2.30;;;0.80;;
13406;SDS011;6774;48.208;10.766;2023-07-16T13:18:45;0.75;;;0.75;;
13406;SDS011;6774;48.208;10.766;2023-07-16T13:21:15;0.75;;;0.75;;
13406;SDS011;6774;48.208;10.766;2023-07-16T13:23:42;0.95;;;0.55;;
13406;SDS011;6774;48.208;10.766;2023-07-16T13:26:10;0.80;;;0.80;;
13406;SDS011;6774;48.208;10.766;2023-07-16T13:28:38;1.40;;;1.10;;
13406;SDS011;6774;48.208;10.766;2023-07-16T13:31:06;1.15;;;1.15;;
13406;SDS011;6774;48.208;10.766;2023-07-16T13:33:34;0.95;;;0.95;;
13406;SDS011;6774;48.208;10.766;2023-07-16T13:36:02;3.20;;;1.10;;
13406;SDS011;6774;48.208;10.766;2023-07-16T13:38:32;1.67;;;1.02;;
13406;SDS011;6774;48.208;10.766;2023-07-16T13:40:59;0.80;;;0.80;;
13406;SDS011;6774;48.208;10.766;2023-07-16T13:43:27;0.68;;;0.68;;
13406;SDS011;6774;48.208;10.766;2023-07-16T13:45:55;1.88;;;0.65;;
13406;SDS011;6774;48.208;10.766;2023-07-16T13:48:23;1.33;;;1.25;;
13406;SDS011;6774;48.208;10.766;2023-07-16T13:50:51;1.50;;;0.98;;
13406;SDS011;6774;48.208;10.766;2023-07-16T13:53:18;2.72;;;0.80;;
13406;SDS011;6774;48.208;10.766;2023-07-16T13:55:47;0.98;;;0.98;;
13406;SDS011;6774;48.208;10.766;2023-07-16T13:58:15;3.30;;;1.92;;
13406;SDS011;6774;48.208;10.766;2023-07-16T14:00:43;1.67;;;0.93;;
13406;SDS011;6774;48.208;10.766;2023-07-16T14:03:11;0.93;;;0.88;;
13406;SDS011;6774;48.208;10.766;2023-07-16T14:05:39;1.40;;;0.93;;
13406;SDS011;6774;48.208;10.766;2023-07-16T14:08:06;0.75;;;0.75;;
13406;SDS011;6774;48.208;10.766;2023-07-16T14:10:34;0.75;;;0.75;;
13406;SDS011;6774;48.208;10.766;2023-07-16T14:13:03;2.35;;;0.75;;
13406;SDS011;6774;48.208;10.766;2023-07-16T14:15:31;1.13;;;1.00;;
13406;SDS011;6774;48.208;10.766;2023-07-16T14:17:59;2.45;;;1.02;;
13406;SDS011;6774;48.208;10.766;2023-07-16T14:20:27;5.25;;;1.52;;
13406;SDS011;6774;48.208;10.766;2023-07-16T14:22:55;1.02;;;1.02;;
13406;SDS011;6774;48.208;10.766;2023-07-16T14:25:22;1.25;;;1.25;;
13406;SDS011;6774;48.208;10.766;2023-07-16T14:27:50;1.90;;;1.65;;
13406;SDS011;6774;48.208;10.766;2023-07-16T14:30:19;1.38;;;1.38;;
13406;SDS011;6774;48.208;10.766;2023-07-16T14:32:47;1.10;;;1.00;;
13406;SDS011;6774;48.208;10.766;2023-07-16T14:35:15;1.92;;;0.80;;
13406;SDS011;6774;48.208;10.766;2023-07-16T14:38:00;1.10;;;1.10;;
13406;SDS011;6774;48.208;10.766;2023-07-16T14:40:28;0.70;;;0.70;;
13406;SDS011;6774;48.208;10.766;2023-07-16T14:42:55;0.80;;;0.80;;
13406;SDS011;6774;48.208;10.766;2023-07-16T14:45:24;2.38;;;2.28;;
13406;SDS011;6774;48.208;10.766;2023-07-16T14:47:52;1.17;;;0.85;;
13406;SDS011;6774;48.208;10.766;2023-07-16T14:50:20;1.00;;;0.98;;
13406;SDS011;6774;48.208;10.766;2023-07-16T14:52:50;0.88;;;0.88;;
13406;SDS011;6774;48.208;10.766;2023-07-16T14:55:17;1.40;;;1.30;;
13406;SDS011;6774;48.208;10.766;2023-07-16T14:57:46;1.38;;;1.02;;